Cheetham Hill, United Kingdom
Current Conditions -  °F | °C
As of 8:50 PM on Tuesday 25 Nov 2014 (Local Time) from EGCC Reporting Station
Drizzle Drizzle  
Wind Chill:   Ceiling: 2600
Heat Index:   Visibility: 6mi
Dew Point:   Wind: 9mph
Humidity: 87%   Direction: 60°ENE
Pressure: 30.12"   Gusts: NA
Location:  53.5°N, 2.24°W
Report Text: EGCC 252050Z 06008KT 9999 -DZ BKN026 06/04 Q1020 NOSIG
Loading
Personal Weather Stations






























Interactive Weather Map New forecast layout! Learn more

10-Day Weather Forecast

Advertisements
Track Severe Weather on mobile